Time;durP1;ratioP1;P1;durP2;ratioP2;P2;SDS_P1;SDS_P2;PMS_P1;PMS_P2;Temp;Humidity;BMP_temperature;BMP_pressure;BME280_temperature;BME280_humidity;BME280_pressure;Samples;Min_cycle;Max_cycle;Signal;HPM_P1;HPM_P2
2021/09/05 00:00:36;;;;;;;7.60;4.10;;;;;;;11.95;100.00;101557.47;5076534;28;20465;-66
2021/09/05 00:03:03;;;;;;;10.20;4.90;;;;;;;11.81;100.00;101558.09;5076603;28;20464;-66
2021/09/05 00:05:30;;;;;;;5.13;3.47;;;;;;;11.62;100.00;101555.28;5076616;28;20445;-66
2021/09/05 00:07:56;;;;;;;4.77;2.80;;;;;;;11.49;100.00;101555.13;5076616;28;20442;-67
2021/09/05 00:10:23;;;;;;;7.33;4.47;;;;;;;11.53;100.00;101553.47;5076672;28;20507;-67
2021/09/05 00:12:49;;;;;;;6.40;3.27;;;;;;;11.57;100.00;101551.81;5076329;28;20488;-66
2021/09/05 00:15:17;;;;;;;5.33;3.40;;;;;;;11.47;100.00;101550.00;5076546;28;20445;-67
2021/09/05 00:17:44;;;;;;;5.47;2.70;;;;;;;11.40;100.00;101551.41;5076432;28;20445;-67
2021/09/05 00:20:11;;;;;;;4.70;3.53;;;;;;;11.46;100.00;101553.78;5076329;28;20433;-66
2021/09/05 00:22:38;;;;;;;7.73;3.50;;;;;;;11.55;100.00;101549.38;5076315;28;20447;-67
2021/09/05 00:25:05;;;;;;;7.83;3.77;;;;;;;11.45;100.00;101549.44;5076468;28;20522;-66
2021/09/05 00:27:31;;;;;;;6.33;4.10;;;;;;;11.45;100.00;101557.59;5076290;28;20445;-67
2021/09/05 00:29:58;;;;;;;9.20;3.47;;;;;;;11.40;100.00;101562.25;5076378;28;20444;-67
2021/09/05 00:32:26;;;;;;;3.57;2.30;;;;;;;11.36;100.00;101560.09;5076037;28;20481;-66
2021/09/05 00:34:52;;;;;;;8.47;3.60;;;;;;;11.46;100.00;101555.69;5076137;28;20457;-67
2021/09/05 00:37:18;;;;;;;6.80;4.07;;;;;;;11.50;100.00;101573.00;5076077;28;20449;-66
2021/09/05 00:39:45;;;;;;;8.13;3.50;;;;;;;11.40;100.00;101568.47;5076068;28;20445;-67
2021/09/05 00:42:11;;;;;;;5.23;3.47;;;;;;;11.40;100.00;101570.38;5076306;28;20436;-67
2021/09/05 00:44:38;;;;;;;5.50;3.50;;;;;;;11.44;100.00;101571.44;5075957;28;20469;-66
2021/09/05 00:47:04;;;;;;;9.17;3.87;;;;;;;11.46;100.00;101569.25;5075857;28;20441;-67
2021/09/05 00:49:32;;;;;;;6.60;3.70;;;;;;;11.35;100.00;101565.81;5075499;28;20445;-67
2021/09/05 00:51:58;;;;;;;5.40;4.43;;;;;;;11.33;100.00;101571.53;5075701;28;20488;-67
2021/09/05 00:54:25;;;;;;;6.00;3.90;;;;;;;11.29;100.00;101567.75;5075679;28;20468;-68
2021/09/05 00:56:51;;;;;;;4.23;3.07;;;;;;;11.13;100.00;101574.34;5075738;28;20536;-67
2021/09/05 00:59:20;;;;;;;4.33;3.33;;;;;;;11.14;100.00;101575.97;5075627;28;20437;-67
2021/09/05 01:01:46;;;;;;;6.40;3.27;;;;;;;10.96;100.00;101573.91;5075611;28;20453;-67
2021/09/05 01:04:13;;;;;;;3.60;2.53;;;;;;;10.91;100.00;101576.63;5075467;28;20464;-66
2021/09/05 01:06:41;;;;;;;3.90;2.60;;;;;;;10.89;100.00;101571.50;5075185;28;20944;-67
2021/09/05 01:09:08;;;;;;;4.17;2.60;;;;;;;10.89;100.00;101576.94;5075488;28;20441;-67
2021/09/05 01:11:37;;;;;;;3.67;2.40;;;;;;;10.84;100.00;101571.50;5075416;28;20476;-66
2021/09/05 01:14:05;;;;;;;5.70;3.70;;;;;;;10.93;100.00;101582.56;5075305;28;20974;-68
2021/09/05 01:16:33;;;;;;;6.03;2.63;;;;;;;10.96;100.00;101584.75;5075430;28;20441;-67
2021/09/05 01:19:04;;;;;;;3.57;2.53;;;;;;;10.89;100.00;101579.63;5075084;28;20448;-67
2021/09/05 01:21:30;;;;;;;2.70;2.13;;;;;;;10.95;100.00;101573.09;5075578;28;20418;-67
2021/09/05 01:23:58;;;;;;;5.90;3.53;;;;;;;10.99;100.00;101587.72;5075199;28;20461;-66
2021/09/05 01:26:26;;;;;;;3.80;3.00;;;;;;;10.88;100.00;101578.00;5075169;28;20484;-66
2021/09/05 01:28:54;;;;;;;3.40;2.30;;;;;;;10.87;100.00;101581.81;5075186;28;20449;-67
2021/09/05 01:31:21;;;;;;;7.13;3.17;;;;;;;10.92;100.00;101587.19;5074997;28;20481;-67
2021/09/05 01:33:48;;;;;;;2.77;2.33;;;;;;;10.72;100.00;101582.69;5074994;28;20460;-67
2021/09/05 01:36:14;;;;;;;7.80;4.17;;;;;;;10.89;100.00;101578.81;5074962;28;20448;-66
2021/09/05 01:38:40;;;;;;;10.00;3.30;;;;;;;10.94;100.00;101586.94;5074986;28;20449;-67
2021/09/05 01:41:07;;;;;;;7.60;5.07;;;;;;;10.96;100.00;101587.44;5074919;28;20444;-67
2021/09/05 01:43:33;;;;;;;8.83;4.33;;;;;;;10.83;100.00;101586.16;5074741;28;20465;-67
2021/09/05 01:46:01;;;;;;;6.50;4.33;;;;;;;10.79;100.00;101585.09;5074851;28;20450;-67
2021/09/05 01:48:27;;;;;;;7.40;4.00;;;;;;;10.93;100.00;101585.28;5074377;28;20825;-67
2021/09/05 01:50:54;;;;;;;7.33;3.53;;;;;;;10.89;100.00;101582.34;5074734;28;20446;-67
2021/09/05 01:53:21;;;;;;;7.90;4.33;;;;;;;10.80;100.00;101592.97;5074448;28;20489;-67
2021/09/05 01:55:47;;;;;;;8.53;4.60;;;;;;;10.74;100.00;101593.25;5074258;28;20437;-67
2021/09/05 01:58:13;;;;;;;13.23;3.90;;;;;;;10.84;100.00;101588.56;5074476;28;20452;-67
2021/09/05 02:00:40;;;;;;;7.57;3.87;;;;;;;10.88;100.00;101593.44;5073539;28;20465;-67
2021/09/05 02:03:07;;;;;;;12.70;6.10;;;;;;;10.95;100.00;101599.38;5074653;28;20454;-68
2021/09/05 02:05:34;;;;;;;20.10;6.03;;;;;;;10.91;100.00;101599.13;5074381;28;20441;-67
2021/09/05 02:08:00;;;;;;;9.33;4.20;;;;;;;10.89;100.00;101605.91;5074355;28;20437;-67
2021/09/05 02:10:27;;;;;;;11.53;5.00;;;;;;;10.97;100.00;101603.44;5074313;28;20429;-67
2021/09/05 02:12:53;;;;;;;11.03;4.43;;;;;;;10.90;100.00;101602.13;5074162;28;20492;-66
2021/09/05 02:15:20;;;;;;;7.70;4.50;;;;;;;10.90;100.00;101596.72;5074126;28;20479;-67
2021/09/05 02:17:46;;;;;;;8.33;4.20;;;;;;;11.03;100.00;101607.75;5074247;28;20814;-67
2021/09/05 02:20:14;;;;;;;8.90;4.80;;;;;;;11.06;100.00;101611.78;5073773;28;20452;-66
2021/09/05 02:22:41;;;;;;;6.93;3.63;;;;;;;11.02;100.00;101610.72;5073762;28;20452;-66
2021/09/05 02:25:09;;;;;;;8.23;3.93;;;;;;;11.11;100.00;101620.75;5073947;28;20884;-67
2021/09/05 02:27:35;;;;;;;10.50;4.20;;;;;;;11.13;100.00;101617.72;5074254;28;20475;-67
2021/09/05 02:30:02;;;;;;;10.20;5.87;;;;;;;11.22;100.00;101621.47;5073720;28;20907;-67
2021/09/05 02:32:28;;;;;;;8.43;4.90;;;;;;;11.24;100.00;101611.16;5073519;28;20484;-67
2021/09/05 02:34:54;;;;;;;4.90;3.00;;;;;;;11.31;100.00;101619.78;5073810;28;20468;-67
2021/09/05 02:37:22;;;;;;;4.67;2.70;;;;;;;11.37;100.00;101620.56;5073801;28;20474;-67
2021/09/05 02:39:49;;;;;;;7.63;4.07;;;;;;;11.46;100.00;101618.06;5073776;28;20437;-66
2021/09/05 02:42:15;;;;;;;10.13;4.57;;;;;;;11.43;100.00;101622.19;5073870;28;20437;-67
2021/09/05 02:44:41;;;;;;;4.87;2.87;;;;;;;11.49;100.00;101625.66;5073597;28;20468;-67
2021/09/05 02:47:08;;;;;;;10.23;5.00;;;;;;;11.51;100.00;101628.91;5073424;28;20449;-65
2021/09/05 02:49:35;;;;;;;5.83;4.80;;;;;;;11.54;100.00;101620.19;5073619;28;20437;-67
2021/09/05 02:52:01;;;;;;;11.30;5.33;;;;;;;11.53;100.00;101632.97;5073569;28;20591;-67
2021/09/05 02:54:29;;;;;;;10.60;4.23;;;;;;;11.50;100.00;101621.84;5073432;28;20458;-66
2021/09/05 02:56:55;;;;;;;11.60;4.00;;;;;;;11.57;100.00;101625.88;5073494;28;20448;-67
2021/09/05 02:59:22;;;;;;;7.97;3.80;;;;;;;11.58;100.00;101624.78;5073529;28;20855;-67
2021/09/05 03:01:48;;;;;;;10.70;3.90;;;;;;;11.59;100.00;101625.59;5073120;28;20463;-67
2021/09/05 03:04:15;;;;;;;13.13;4.87;;;;;;;11.57;100.00;101623.16;5073357;28;20464;-66
2021/09/05 03:06:41;;;;;;;11.70;4.00;;;;;;;11.66;100.00;101623.38;5073372;28;20440;-64
2021/09/05 03:09:07;;;;;;;7.63;4.00;;;;;;;11.70;100.00;101629.88;5072999;28;20992;-64
2021/09/05 03:11:35;;;;;;;7.17;2.97;;;;;;;11.82;100.00;101630.34;5073163;28;20448;-65
2021/09/05 03:14:02;;;;;;;15.67;5.20;;;;;;;11.95;100.00;101633.50;5073286;28;20465;-66
2021/09/05 03:16:28;;;;;;;9.47;5.03;;;;;;;12.06;100.00;101630.41;5073192;28;20499;-67
2021/09/05 03:18:54;;;;;;;7.20;4.37;;;;;;;12.17;100.00;101631.13;5073027;28;20934;-67
2021/09/05 03:21:21;;;;;;;9.13;6.00;;;;;;;12.23;100.00;101630.00;5073298;28;20444;-68
2021/09/05 03:23:47;;;;;;;11.17;5.63;;;;;;;12.31;100.00;101626.66;5073192;28;20464;-67
2021/09/05 03:26:14;;;;;;;13.47;5.23;;;;;;;12.37;100.00;101630.94;5073122;28;20441;-67
2021/09/05 03:28:41;;;;;;;12.50;6.60;;;;;;;12.38;100.00;101626.31;5072927;28;20938;-67
2021/09/05 03:31:08;;;;;;;10.20;4.03;;;;;;;12.38;100.00;101634.47;5073175;28;20437;-67
2021/09/05 03:33:34;;;;;;;20.50;7.03;;;;;;;12.40;100.00;101629.56;5072899;28;20559;-67
2021/09/05 03:36:01;;;;;;;11.80;6.60;;;;;;;12.38;100.00;101629.81;5073081;28;20452;-68
2021/09/05 03:38:27;;;;;;;10.93;5.47;;;;;;;12.36;100.00;101629.31;5073034;28;20449;-67
2021/09/05 03:40:54;;;;;;;11.70;5.57;;;;;;;12.45;100.00;101628.69;5073070;28;20822;-67
2021/09/05 03:43:20;;;;;;;9.97;5.70;;;;;;;12.52;100.00;101634.59;5072820;28;20464;-67
2021/09/05 03:45:48;;;;;;;8.17;4.57;;;;;;;12.45;100.00;101631.41;5073008;28;20441;-67
2021/09/05 03:48:14;;;;;;;11.93;6.03;;;;;;;12.41;100.00;101641.25;5073051;28;20441;-67
2021/09/05 03:50:41;;;;;;;8.27;4.30;;;;;;;12.32;100.00;101631.00;5072951;28;20468;-67
2021/09/05 03:53:07;;;;;;;13.83;6.33;;;;;;;12.24;100.00;101638.94;5072764;28;20492;-67
2021/09/05 03:55:34;;;;;;;12.03;6.27;;;;;;;12.24;100.00;101644.38;5072925;28;20453;-67
2021/09/05 03:58:02;;;;;;;10.40;5.53;;;;;;;12.12;100.00;101637.41;5072846;28;20457;-67
2021/09/05 04:00:28;;;;;;;10.80;6.10;;;;;;;11.99;100.00;101639.97;5072701;28;20453;-67
2021/09/05 04:02:56;;;;;;;8.10;5.77;;;;;;;11.95;100.00;101645.16;5072961;28;20444;-67
2021/09/05 04:05:23;;;;;;;12.43;4.97;;;;;;;11.94;100.00;101640.81;5072723;28;20822;-67
2021/09/05 04:08:11;;;;;;;11.47;3.70;;;;;;;11.93;100.00;101641.94;5072392;28;21021;-68
2021/09/05 04:10:39;;;;;;;7.07;3.40;;;;;;;11.95;100.00;101647.06;5072778;28;20899;-67
2021/09/05 04:13:07;;;;;;;10.87;3.80;;;;;;;11.80;100.00;101637.91;5072721;28;20485;-67
2021/09/05 04:15:33;;;;;;;7.20;3.43;;;;;;;11.87;100.00;101651.22;5072291;28;20939;-67
2021/09/05 04:18:01;;;;;;;9.50;4.50;;;;;;;11.86;100.00;101658.56;5072661;28;20449;-67
2021/09/05 04:20:27;;;;;;;13.50;4.47;;;;;;;11.82;100.00;101652.06;5072672;28;20437;-66
2021/09/05 04:22:54;;;;;;;6.17;3.60;;;;;;;11.77;100.00;101653.97;5072575;28;20437;-66
2021/09/05 04:25:20;;;;;;;7.23;3.00;;;;;;;11.70;100.00;101657.00;5074914;28;20841;-63
2021/09/05 04:27:46;;;;;;;6.03;4.07;;;;;;;11.76;100.00;101652.34;5076305;28;20473;-64
2021/09/05 04:30:14;;;;;;;10.90;5.53;;;;;;;11.84;100.00;101660.72;5076012;28;20440;-66
2021/09/05 04:32:41;;;;;;;10.40;4.13;;;;;;;11.94;100.00;101659.84;5076143;28;20489;-65
2021/09/05 04:35:09;;;;;;;8.53;5.57;;;;;;;11.95;100.00;101661.44;5075734;28;20464;-67
2021/09/05 04:37:36;;;;;;;17.93;7.43;;;;;;;12.03;100.00;101662.75;5076205;28;20442;-67
2021/09/05 04:40:04;;;;;;;11.30;6.83;;;;;;;12.07;100.00;101669.25;5076307;28;20437;-67
2021/09/05 04:42:31;;;;;;;11.83;5.27;;;;;;;12.05;100.00;101671.44;5076009;28;20449;-67
2021/09/05 04:44:57;;;;;;;10.63;5.47;;;;;;;12.18;100.00;101672.69;5075860;28;20475;-67
2021/09/05 04:47:24;;;;;;;12.60;5.83;;;;;;;12.29;100.00;101676.94;5075905;28;20449;-67
2021/09/05 04:49:50;;;;;;;6.70;4.40;;;;;;;12.35;100.00;101679.34;5075810;28;20449;-66
2021/09/05 04:52:18;;;;;;;8.80;5.30;;;;;;;12.46;100.00;101687.38;5075368;28;20465;-66
2021/09/05 04:54:44;;;;;;;11.50;6.90;;;;;;;12.57;100.00;101688.88;5077119;28;20468;-67
2021/09/05 04:57:11;;;;;;;11.33;5.77;;;;;;;12.66;100.00;101692.63;5075991;28;20445;-66
2021/09/05 04:59:38;;;;;;;15.07;6.90;;;;;;;12.76;100.00;101691.69;5075724;28;20442;-66
2021/09/05 05:02:04;;;;;;;13.17;6.73;;;;;;;12.88;100.00;101700.25;5075582;28;20449;-67
2021/09/05 05:04:31;;;;;;;10.20;7.53;;;;;;;13.00;100.00;101702.56;5075464;28;20484;-66
2021/09/05 05:06:57;;;;;;;14.30;7.60;;;;;;;13.04;100.00;101709.88;5075229;28;20842;-66
2021/09/05 05:09:25;;;;;;;8.80;4.63;;;;;;;13.11;100.00;101709.53;5075503;28;20491;-67
2021/09/05 05:11:51;;;;;;;16.33;7.53;;;;;;;13.23;100.00;101715.38;5075223;28;20959;-66
2021/09/05 05:14:18;;;;;;;8.90;4.80;;;;;;;13.32;100.00;101715.53;5075289;28;20489;-67
2021/09/05 05:16:44;;;;;;;12.30;6.23;;;;;;;13.37;100.00;101710.06;5075757;28;20433;-66
2021/09/05 05:19:11;;;;;;;14.10;5.53;;;;;;;13.46;100.00;101724.63;5075347;28;20444;-66
2021/09/05 05:21:37;;;;;;;10.50;6.57;;;;;;;13.57;100.00;101728.03;5075342;28;20441;-66
2021/09/05 05:24:04;;;;;;;10.87;6.83;;;;;;;13.62;100.00;101722.50;5075140;28;20465;-67
2021/09/05 05:26:32;;;;;;;10.53;4.80;;;;;;;13.68;100.00;101726.78;5075156;28;20441;-67
2021/09/05 05:29:00;;;;;;;12.77;5.30;;;;;;;13.71;100.00;101734.34;5075150;28;20448;-65
2021/09/05 05:31:26;;;;;;;11.80;4.73;;;;;;;13.75;100.00;101740.84;5075070;28;20456;-66
2021/09/05 05:33:52;;;;;;;8.50;5.70;;;;;;;13.80;100.00;101745.41;5075064;28;20489;-65
2021/09/05 05:36:19;;;;;;;8.73;5.73;;;;;;;13.87;100.00;101741.22;5073847;28;20448;-67
2021/09/05 05:38:45;;;;;;;10.47;6.17;;;;;;;13.93;100.00;101746.56;5074887;28;20449;-66
2021/09/05 05:41:13;;;;;;;18.43;6.20;;;;;;;13.98;100.00;101749.22;5074911;28;20454;-66
2021/09/05 05:43:40;;;;;;;11.57;5.37;;;;;;;14.00;100.00;101744.31;5074705;28;20553;-66
2021/09/05 05:46:07;;;;;;;8.73;5.40;;;;;;;13.99;100.00;101748.13;5074806;28;20434;-66
2021/09/05 05:48:33;;;;;;;7.50;4.87;;;;;;;14.00;100.00;101753.28;5074755;28;20555;-67
2021/09/05 05:51:00;;;;;;;8.13;5.13;;;;;;;14.01;100.00;101756.81;5074655;28;20445;-66
2021/09/05 05:53:26;;;;;;;10.30;4.83;;;;;;;13.98;100.00;101751.94;5074538;28;20491;-67
2021/09/05 05:55:52;;;;;;;9.43;5.23;;;;;;;14.00;100.00;101758.72;5074665;28;20445;-67
2021/09/05 05:58:19;;;;;;;8.13;5.20;;;;;;;13.99;100.00;101761.72;5074540;28;20448;-66
2021/09/05 06:00:47;;;;;;;7.80;4.33;;;;;;;13.95;100.00;101760.72;5074226;28;20460;-67
2021/09/05 06:03:13;;;;;;;6.50;4.27;;;;;;;13.99;100.00;101767.19;5074338;28;20468;-66
2021/09/05 06:05:40;;;;;;;10.83;5.00;;;;;;;14.03;100.00;101773.66;5074448;28;20851;-66
2021/09/05 06:08:06;;;;;;;10.10;5.83;;;;;;;14.12;100.00;101769.16;5074349;28;20453;-66
2021/09/05 06:10:33;;;;;;;9.60;4.50;;;;;;;14.16;100.00;101764.75;5074333;28;20437;-67
2021/09/05 06:12:59;;;;;;;10.37;5.33;;;;;;;14.25;100.00;101770.34;5074107;28;20824;-67
2021/09/05 06:15:26;;;;;;;8.57;3.93;;;;;;;14.33;100.00;101769.66;5074230;28;20441;-66
2021/09/05 06:17:54;;;;;;;6.10;3.90;;;;;;;14.41;100.00;101769.00;5073843;28;20818;-66
2021/09/05 06:20:20;;;;;;;8.07;4.00;;;;;;;14.44;100.00;101765.69;5074084;28;20452;-67
2021/09/05 06:22:47;;;;;;;10.97;6.27;;;;;;;14.49;100.00;101771.06;5073972;28;20810;-66
2021/09/05 06:25:13;;;;;;;8.43;4.13;;;;;;;14.53;100.00;101774.03;5073696;28;20456;-66
2021/09/05 06:27:40;;;;;;;7.80;4.80;;;;;;;14.58;100.00;101776.66;5074061;28;20452;-66
2021/09/05 06:30:07;;;;;;;5.60;3.37;;;;;;;14.62;100.00;101775.75;5073948;28;20457;-66
2021/09/05 06:32:34;;;;;;;9.03;4.97;;;;;;;14.63;100.00;101777.38;5073766;28;20445;-66
2021/09/05 06:35:01;;;;;;;9.67;4.80;;;;;;;14.67;100.00;101782.25;5073821;28;20461;-66
2021/09/05 06:37:28;;;;;;;5.77;2.80;;;;;;;14.64;100.00;101784.44;5074046;28;20440;-66
2021/09/05 06:39:54;;;;;;;6.63;4.33;;;;;;;14.66;100.00;101784.16;5073771;28;20856;-66
2021/09/05 06:42:21;;;;;;;6.00;3.43;;;;;;;14.70;100.00;101785.19;5073716;28;20437;-65
2021/09/05 06:44:47;;;;;;;5.77;4.73;;;;;;;14.73;100.00;101781.84;5073531;28;20534;-68
2021/09/05 06:47:13;;;;;;;6.13;3.60;;;;;;;14.76;100.00;101786.69;5073141;28;20433;-64
2021/09/05 06:49:40;;;;;;;5.67;4.60;;;;;;;14.74;100.00;101782.66;5073539;28;20442;-64
2021/09/05 06:52:08;;;;;;;5.93;3.43;;;;;;;14.79;100.00;101801.69;5073566;28;20843;-64
2021/09/05 06:54:35;;;;;;;6.60;3.57;;;;;;;14.82;100.00;101788.22;5073484;28;20555;-64
2021/09/05 06:57:02;;;;;;;5.57;3.37;;;;;;;14.85;100.00;101795.81;5073543;28;20452;-64
2021/09/05 06:59:28;;;;;;;8.03;3.93;;;;;;;14.89;100.00;101791.38;5073549;28;20807;-64
2021/09/05 07:01:55;;;;;;;7.90;4.13;;;;;;;14.95;100.00;101792.09;5073137;28;20456;-64
2021/09/05 07:04:21;;;;;;;8.80;4.43;;;;;;;14.94;100.00;101793.22;5073323;28;20464;-64
2021/09/05 07:06:48;;;;;;;5.90;3.77;;;;;;;14.95;100.00;101794.81;5073407;28;20475;-64
2021/09/05 07:09:15;;;;;;;7.20;4.00;;;;;;;14.99;99.88;101801.28;5073395;28;20445;-64
2021/09/05 07:11:42;;;;;;;6.50;3.10;;;;;;;15.01;99.76;101801.81;5073351;28;20449;-64
2021/09/05 07:14:08;;;;;;;4.27;2.83;;;;;;;15.06;99.98;101796.25;5073138;28;20488;-63
2021/09/05 07:16:35;;;;;;;7.80;4.37;;;;;;;15.06;98.93;101804.44;5073287;28;20445;-63
2021/09/05 07:19:01;;;;;;;6.03;4.10;;;;;;;15.08;97.63;101804.94;5073007;28;20995;-67
2021/09/05 07:21:27;;;;;;;8.23;4.37;;;;;;;15.07;96.64;101810.72;5073059;28;20922;-67
2021/09/05 07:23:54;;;;;;;3.30;2.83;;;;;;;15.01;95.82;101812.72;5073112;28;20457;-67
2021/09/05 07:26:22;;;;;;;8.23;4.30;;;;;;;15.11;95.93;101812.53;5073201;28;20445;-67
2021/09/05 07:28:48;;;;;;;4.30;3.00;;;;;;;15.20;96.43;101812.66;5073228;28;20468;-67
2021/09/05 07:31:15;;;;;;;7.27;3.57;;;;;;;15.25;97.29;101809.81;5072820;28;20957;-66
2021/09/05 07:33:41;;;;;;;8.03;4.23;;;;;;;15.33;97.34;101821.97;5072925;28;20489;-67
2021/09/05 07:36:08;;;;;;;7.93;4.53;;;;;;;15.45;97.08;101827.75;5072681;28;20812;-67
2021/09/05 07:38:34;;;;;;;4.93;2.90;;;;;;;15.54;96.31;101827.84;5073039;28;20445;-67
2021/09/05 07:41:00;;;;;;;13.93;3.73;;;;;;;15.62;94.72;101819.72;5073139;28;20459;-67
2021/09/05 07:43:28;;;;;;;5.27;3.23;;;;;;;15.72;94.67;101818.75;5072864;28;20464;-66
2021/09/05 07:45:55;;;;;;;8.83;4.07;;;;;;;15.84;93.62;101829.13;5073067;28;20445;-67
2021/09/05 07:48:21;;;;;;;4.17;3.60;;;;;;;16.05;93.03;101833.06;5073010;28;20494;-67
2021/09/05 07:50:47;;;;;;;13.90;5.30;;;;;;;16.20;92.18;101828.34;5072653;28;20935;-67
2021/09/05 07:53:14;;;;;;;7.97;3.93;;;;;;;16.35;91.78;101828.81;5072704;28;20465;-67
2021/09/05 07:55:40;;;;;;;4.93;4.37;;;;;;;16.45;90.79;101835.97;5072997;28;20443;-67
2021/09/05 07:58:07;;;;;;;7.50;4.60;;;;;;;16.52;91.38;101843.75;5072892;28;20802;-67
2021/09/05 08:00:34;;;;;;;10.23;5.67;;;;;;;16.62;90.66;101843.50;5075622;28;20973;-67
2021/09/05 08:03:01;;;;;;;9.17;4.40;;;;;;;16.72;90.95;101839.69;5076691;28;20444;-69
2021/09/05 08:05:27;;;;;;;8.20;4.10;;;;;;;16.80;90.92;101850.75;5076765;28;20445;-69
2021/09/05 08:07:54;;;;;;;7.73;4.30;;;;;;;16.88;89.74;101849.19;5076431;28;20934;-67
2021/09/05 08:10:20;;;;;;;9.80;3.87;;;;;;;16.95;89.55;101855.00;5076323;28;21021;-68
2021/09/05 08:12:46;;;;;;;4.17;2.80;;;;;;;17.02;89.42;101857.31;5076517;28;20471;-68
2021/09/05 08:15:13;;;;;;;10.57;4.80;;;;;;;17.17;88.16;101859.66;5076562;28;20485;-68
2021/09/05 08:17:41;;;;;;;5.47;3.57;;;;;;;17.30;87.69;101866.16;5076485;28;20474;-69
2021/09/05 08:20:09;;;;;;;7.83;3.70;;;;;;;17.34;87.29;101861.66;5076448;28;20437;-68
2021/09/05 08:22:35;;;;;;;7.83;4.20;;;;;;;17.38;85.98;101865.38;5076297;28;20441;-68
2021/09/05 08:25:02;;;;;;;10.10;4.10;;;;;;;17.34;85.16;101867.94;5070061;28;20465;-69
2021/09/05 08:27:28;;;;;;;12.93;5.50;;;;;;;17.45;84.57;101860.28;5067960;28;20449;-68
2021/09/05 08:29:55;;;;;;;9.60;4.17;;;;;;;17.53;84.82;101875.09;5056217;28;20441;-68
2021/09/05 08:32:21;;;;;;;9.10;4.10;;;;;;;17.57;84.73;101878.84;5056166;28;20521;-68
2021/09/05 08:34:49;;;;;;;9.93;3.87;;;;;;;17.59;84.39;101882.88;5070074;28;20492;-68
2021/09/05 08:37:15;;;;;;;9.60;3.83;;;;;;;17.59;83.92;101874.66;5056117;28;20442;-66
2021/09/05 08:39:42;;;;;;;14.60;5.37;;;;;;;17.62;84.35;101875.97;5055704;28;20876;-66
2021/09/05 08:42:08;;;;;;;8.80;4.90;;;;;;;17.69;84.37;101878.25;5057367;28;20821;-65
2021/09/05 08:44:35;;;;;;;8.67;5.27;;;;;;;17.85;84.11;101880.28;5074183;28;20457;-65
2021/09/05 08:47:02;;;;;;;8.67;4.60;;;;;;;17.99;83.59;101882.06;5076024;28;20453;-65
2021/09/05 08:49:33;;;;;;;5.50;3.33;;;;;;;18.20;82.83;101879.53;5075874;28;20449;-65
2021/09/05 08:52:00;;;;;;;7.37;3.30;;;;;;;18.40;82.05;101881.63;5075995;28;20429;-65
2021/09/05 08:54:27;;;;;;;8.43;3.70;;;;;;;18.58;82.29;101885.19;5075703;28;20536;-65
2021/09/05 08:56:54;;;;;;;8.30;3.90;;;;;;;18.63;81.43;101890.50;5075570;28;20957;-65
2021/09/05 08:59:21;;;;;;;6.87;3.93;;;;;;;18.68;80.30;101895.81;5075721;28;20444;-66
2021/09/05 09:01:54;;;;;;;5.33;3.30;;;;;;;18.76;78.60;101894.25;5075447;28;20460;-65
2021/09/05 09:04:22;;;;;;;6.13;3.43;;;;;;;18.86;79.67;101902.97;5075254;28;20466;-68
2021/09/05 09:06:48;;;;;;;8.97;4.27;;;;;;;18.98;78.92;101904.25;5075606;28;20448;-68
2021/09/05 09:09:16;;;;;;;8.47;4.30;;;;;;;19.12;78.78;101902.09;5075601;28;20441;-68
2021/09/05 09:11:51;;;;;;;9.93;3.30;;;;;;;19.15;77.80;101895.97;5066448;28;20951;-68
2021/09/05 09:14:17;;;;;;;9.03;3.97;;;;;;;19.20;77.94;101905.97;5075352;28;20578;-68
2021/09/05 09:16:45;;;;;;;7.03;2.97;;;;;;;19.32;77.64;101895.91;5069399;28;20468;-68
2021/09/05 09:19:22;;;;;;;5.43;3.63;;;;;;;19.49;78.22;101902.50;5075349;28;20442;-68
2021/09/05 09:21:49;;;;;;;11.47;4.57;;;;;;;19.57;75.49;101893.41;5073671;28;20433;-68
2021/09/05 09:24:18;;;;;;;7.77;3.87;;;;;;;19.62;75.81;101896.81;5075101;28;20457;-68
2021/09/05 09:26:56;;;;;;;5.67;2.93;;;;;;;19.63;75.92;101901.16;5075250;28;20476;-68
2021/09/05 09:29:23;;;;;;;7.20;4.20;;;;;;;19.66;76.40;101896.97;5075210;28;20850;-68
2021/09/05 09:31:57;;;;;;;6.57;3.80;;;;;;;19.65;76.29;101887.88;5075074;28;20441;-68
2021/09/05 09:34:25;;;;;;;9.00;4.30;;;;;;;19.79;76.91;101895.09;5065272;28;20520;-68
2021/09/05 09:36:59;;;;;;;7.53;4.00;;;;;;;19.91;76.40;101893.25;5054841;28;20871;-68
2021/09/05 09:39:29;;;;;;;7.87;4.40;;;;;;;19.95;74.00;101895.34;5055088;28;20430;-68
2021/09/05 09:41:56;;;;;;;5.40;3.37;;;;;;;19.97;73.37;101902.13;5058456;28;20480;-68
2021/09/05 09:44:28;;;;;;;6.63;4.13;;;;;;;20.06;74.02;101899.34;5074486;28;20986;-68
2021/09/05 09:46:54;;;;;;;7.70;3.33;;;;;;;19.99;73.21;101899.03;5074912;28;20426;-68
2021/09/05 09:49:20;;;;;;;8.83;4.27;;;;;;;19.59;73.67;101899.38;5074760;28;20467;-68
2021/09/05 09:51:47;;;;;;;7.27;3.40;;;;;;;19.67;74.20;101897.75;5074762;28;20499;-68
2021/09/05 09:54:13;;;;;;;11.20;4.33;;;;;;;19.84;75.21;101889.44;5074661;28;20492;-68
2021/09/05 09:56:42;;;;;;;6.50;3.57;;;;;;;20.05;75.36;101892.19;5074677;28;20485;-66
2021/09/05 09:59:08;;;;;;;8.97;4.27;;;;;;;20.13;73.99;101891.34;5074591;28;20445;-66
2021/09/05 10:01:36;;;;;;;7.70;4.10;;;;;;;20.01;72.89;101894.00;5072910;28;20472;-66
2021/09/05 10:04:05;;;;;;;6.83;4.10;;;;;;;19.67;72.95;101890.31;5062332;28;20465;-65
2021/09/05 10:06:33;;;;;;;13.07;3.30;;;;;;;19.70;74.44;101894.34;5074006;28;20449;-65
2021/09/05 10:09:02;;;;;;;11.67;4.13;;;;;;;19.85;74.59;101889.09;5073877;28;20448;-65
2021/09/05 10:11:29;;;;;;;7.37;3.87;;;;;;;19.97;74.75;101885.63;5067946;28;20449;-66
2021/09/05 10:13:58;;;;;;;8.67;4.93;;;;;;;20.10;74.44;101881.03;5074310;28;20837;-66
2021/09/05 10:16:26;;;;;;;7.70;3.97;;;;;;;20.20;73.67;101886.13;5074669;28;20453;-66
2021/09/05 10:18:55;;;;;;;6.00;3.67;;;;;;;20.30;72.52;101882.16;5074082;28;20948;-66
2021/09/05 10:21:22;;;;;;;6.20;3.50;;;;;;;20.28;72.59;101882.50;5073924;28;20430;-67
2021/09/05 10:23:52;;;;;;;8.67;4.00;;;;;;;20.35;72.72;101882.75;5074037;28;20469;-67
2021/09/05 10:26:19;;;;;;;7.37;4.67;;;;;;;20.31;72.53;101881.81;5063652;28;20460;-67
2021/09/05 10:28:48;;;;;;;8.40;4.67;;;;;;;20.32;73.26;101877.94;5063385;28;20453;-68
2021/09/05 10:31:25;;;;;;;8.77;3.47;;;;;;;20.41;74.09;101877.88;5054236;28;20442;-67
2021/09/05 10:33:52;;;;;;;6.40;3.57;;;;;;;20.29;72.64;101873.09;5054460;28;20458;-67
2021/09/05 10:36:21;;;;;;;9.03;4.37;;;;;;;20.37;73.00;101872.25;5054123;28;20438;-67
2021/09/05 10:38:48;;;;;;;9.30;4.77;;;;;;;20.33;73.75;101874.06;5053923;28;20849;-67
2021/09/05 10:41:16;;;;;;;9.70;5.03;;;;;;;20.39;73.05;101871.88;5054187;28;20457;-67
2021/09/05 10:44:08;;;;;;;12.17;4.50;;;;;;;20.41;71.36;101875.94;5053576;28;20458;-67
2021/09/05 10:46:40;;;;;;;9.90;5.30;;;;;;;20.30;72.30;101869.22;5053943;28;20430;-67
2021/09/05 10:49:07;;;;;;;8.30;4.67;;;;;;;20.32;72.32;101869.69;5053873;28;20480;-67
2021/09/05 10:51:37;;;;;;;13.97;4.07;;;;;;;20.41;74.22;101873.19;5053844;28;20446;-67
2021/09/05 10:54:06;;;;;;;9.77;4.77;;;;;;;20.54;72.82;101876.00;5053830;28;20501;-67
2021/09/05 10:56:33;;;;;;;9.97;4.67;;;;;;;20.76;73.29;101872.91;5060017;28;20468;-68
2021/09/05 10:59:02;;;;;;;7.47;4.20;;;;;;;20.64;68.54;101872.84;5073792;28;20445;-68
2021/09/05 11:01:34;;;;;;;6.70;4.40;;;;;;;20.66;71.13;101874.09;5088513;22;20500;-74
2021/09/05 11:04:21;;;;;;;8.30;4.47;;;;;;;20.74;70.84;101880.69;5073366;28;20437;-74
2021/09/05 11:06:50;;;;;;;9.50;4.97;;;;;;;20.68;71.62;101876.53;5073494;28;20441;-74
2021/09/05 11:09:48;;;;;;;5.70;3.37;;;;;;;20.94;71.99;101872.72;5073085;28;20499;-75
2021/09/05 11:12:34;;;;;;;9.80;4.10;;;;;;;21.25;72.33;101878.53;5033359;28;20439;-75
2021/09/05 11:15:21;;;;;;;8.67;4.53;;;;;;;21.76;70.75;101876.28;5052183;28;20474;-76
2021/09/05 11:17:55;;;;;;;10.37;5.50;;;;;;;22.64;67.79;101873.81;5053378;28;20477;-75